Terminal Aerodrome Forecast
Issued by NWS

Home | Current Version | Previous Version | Text Only | Print | Product List | Glossary On
Versions: 1 2 3 4 5 6 7 8 9 10 11 12 13 14 15 16 17 18 19
000
FTUS44 KLIX 252209 AAB
TAFMSY
TAF AMD
KMSY 252209Z 2522/2618 VRB04KT P6SM VCTS SCT025CB BKN090
      TEMPO 2522/2524 VRB20G35KT 1SM TSRA SCT005 BKN025CB
     FM260000 14012KT P6SM VCSH SCT030 BKN150
     FM260500 15010KT P6SM SCT090
     FM261200 15007KT P6SM SCT020 BKN050
     FM261500 15010KT P6SM VCSH BKN030=

USA.gov is the U.S. government's official web portal to all federal, state and local government web resources and services.